Port Colborne, Canada
Current Conditions -  °F | °C
As of 1:53 AM on Wednesday 22 Oct 2014 (Local Time) from KIAG Reporting Station
Overcast Overcast  
Wind Chill: 39°   Ceiling: 1700
Heat Index: 44°   Visibility: 10mi
Dew Point: 42°   Wind: 9mph
Humidity: 93%   Direction: 20°NNE
Pressure: 30.12"   Gusts: NA
Location:  42.89°N, 79.25°W
Report Text: KIAG 220553Z AUTO 02008KT 10SM OVC017 07/06 A3012 RMK AO2 SLP208 60002 T00670056 10078 20061 51006
Loading
Personal Weather Stations






























Interactive Weather Map
Tropical Storm Tracking
New forecast layout! Learn more

10-Day Weather Forecast

Advertisements
Track Severe Weather on mobile